• Join FlightAware (Why Join?)
  • Login
  • US Flag 
01:45AM EDT


 

Airport Tracker/Info


-or-


 

Live Flight TrackerFlight Track Log ✈ N762NC ✈ 12-Aug-2013 ✈ KATL - KSDF

Flight Track Log - Related Links

Times and Time Zones

All times are in EDT time to prevent confusion due to time zone crossing. See the N762NC flight status page for this flight to view local times or setup timezone preferences in your user account.

Time Position Orientation Groundspeed Altitude Reporting Facility
EDT Latitude Longitude Course Direction KTS MPH feet Rate Location/Type
06:06PM 33.6661 -84.4731 348° North 441 507 3,000  Level Atlanta Center
06:07PM 33.7186 -84.4258 37° Northeast 255 293 4,600 2,100 Climbing Atlanta Center
06:08PM 33.7731 -84.3536 48° Northeast 251 289 7,200 2,520 Climbing Atlanta Center
06:09PM 34.0642 -84.5288 349° North  Level FlightAware Approximate
06:09PM 33.8358 -84.2839 43° Northeast 288 331 9,700  Level Atlanta Center
06:10PM 34.1653 -84.5567 347° North  Level FlightAware Approximate
06:10PM 33.9236 -84.2492 18° North 330 380 9,900  Level Atlanta Center
06:11PM 34.2717 -84.5852 348° North  Level FlightAware Approximate
06:11PM 34.0069 -84.2592 354° North 377 434 9,900  Level Atlanta Center
06:12PM 34.0922 -84.3347 324° Northwest 377 434 9,900 60 Level Atlanta Center
06:13PM 34.1819 -84.4106 325° Northwest 390 449 10,100 900 Climbing Atlanta Center
06:14PM 34.2694 -84.4861 324° Northwest 390 449 11,800 1,200 Climbing Atlanta Center
06:15PM 34.3692 -84.5372 337° Northwest 385 443 12,500 1,200 Climbing Atlanta Center
06:16PM 34.4778 -84.5731 345° North 397 457 14,300 1,740 Climbing Atlanta Center
06:17PM 34.5881 -84.6167 342° North 411 473 16,000 1,500 Climbing Atlanta Center
06:18PM 34.7111 -84.6631 343° North 416 479 17,300 1,260 Climbing Atlanta Center
06:19PM 34.8297 -84.6867 351° North 422 486 18,600 1,200 Climbing Atlanta Center
06:20PM 34.9528 -84.7206 347° North 433 498 19,800 1,200 Climbing Atlanta Center
06:21PM 35.0758 -84.7494 349° North 443 510 21,000 1,020 Climbing Atlanta Center
06:22PM 35.2028 -84.7733 351° North 449 517 21,900 960 Climbing Atlanta Center
06:23PM 35.3300 -84.8075 348° North 455 524 23,000 1,140 Climbing Atlanta Center
06:24PM 35.4592 -84.8342 350° North 460 529 24,200 1,260 Climbing Atlanta Center
06:25PM 35.5839 -84.8764 345° North 465 535 25,600 720 Climbing Atlanta Center
06:26PM 35.7025 -84.9286 340° North 465 535 25,700 -540 Climbing Atlanta Center
06:27PM 35.8314 -84.9789 342° North 466 536 24,600 -840 Descending Atlanta Center
06:28PM 35.9503 -85.0108 348° North 474 545 24,100 -300 Descending Atlanta Center
06:30PM 36.1203 -85.0631 346° North 465 535 24,000 -60 Descending Indianapolis Center
06:31PM 36.2431 -85.0881 351° North 448 516 24,000  Level Indianapolis Center
06:32PM 36.3903 -85.1111 353° North 445 512 24,000  Level Indianapolis Center
06:33PM 36.5044 -85.1567 342° North 433 498 24,000  Level Indianapolis Center
06:34PM 36.6236 -85.1792 351° North 435 501 24,000  Level Indianapolis Center
06:35PM 36.7486 -85.1403 14° North 462 532 24,000 -60 Level Indianapolis Center
06:36PM 36.8742 -85.1147 North 456 525 23,900 -480 Descending Indianapolis Center
06:37PM 37.0011 -85.0903 North 459 528 23,100 -1,200 Descending Indianapolis Center
06:38PM 37.1425 -85.0781 North 462 532 21,500 -2,100 Descending Indianapolis Center
06:39PM 37.2639 -85.0508 10° North 443 510 18,800 -2,100 Descending Indianapolis Center
06:40PM 37.3789 -85.0264 10° North 419 482 17,200 -1,620 Descending Indianapolis Center
06:41PM 37.4928 -85.0064 North 413 475 15,500 -1,680 Descending Indianapolis Center
06:42PM 37.6047 -85.0108 358° North 402 463 13,800 -1,620 Descending Indianapolis Center
06:43PM 37.7161 -85.0147 358° North 400 460 12,300 -1,380 Descending Indianapolis Center
06:44PM 37.8275 -85.0258 355° North 348 400 11,000 -1,320 Descending Indianapolis Center
06:45PM 37.9108 -85.0453 350° North 316 364 9,600 -1,500 Descending Indianapolis Center
06:46PM 37.9997 -85.0678 349° North 290 334 7,700 -1,380 Descending Indianapolis Center
06:47PM 38.0772 -85.0889 348° North 286 329 6,500 -840 Descending Indianapolis Center
06:48PM 38.1197 -85.1589 308° West 258 297 6,000 -300 Descending Indianapolis Center
06:49PM 38.1669 -85.2322 309° West 255 293 6,000  Level Indianapolis Center
06:51PM 38.2147 -85.3108 308° West 278 320 6,000  Level Indianapolis Center
06:52PM 38.2678 -85.3869 312° West 284 327 6,000 -540 Level Indianapolis Center
06:53PM 38.2983 -85.4753 294° West 281 323 4,900 -1,200 Descending Indianapolis Center
06:54PM 38.3144 -85.5683 282° West 274 315 3,600 -960 Descending Indianapolis Center
06:55PM 38.3122 -85.6697 268° West 254 292 3,000 -540 Descending Indianapolis Center
06:56PM 38.2922 -85.7286 247° West 235 270 2,600 -420 Descending Indianapolis Center